EKVB weather

Viborg Airport
Viborg, Central Jutland, Denmark

Public forecast

Using degrees Celsius for public forecast. Weather courtesy of forecast.io.

Closest aviation weather report (METAR) to Viborg Airport

Closest report is Karup Airport, 11.6 nm (21.5 km) SW. Retrieved 2019/10/15 19:20 UTC (36 minutes ago):

EKKA 151920Z AUTO 16003KT 4500 BR SCT011/// BKN054/// BKN140/// BKN150/// 14/13 Q1005

Closest aviation forecast (TAF) to Viborg Airport

Closest forecast is Karup Airport, 11.6 nm (21.5 km) SW. Retrieved 2019/10/15 21:31 UTC (0 seconds ago):

TAF EKKA 152024Z 1521/1621 20006KT 6000 BKN018 TEMPO 1521/1601 2500 BR -RA BKN008 TEMPO 1601/1612 1500 RA BKN004 BECMG 1607/1610 27006KT TEMPO 1612/1619 8000 -RA BECMG 1615/1618 17004KT TEMPO 1619/1621 0200 FG BKN002